createdAt,value
2022-12-13T00:01:28.494Z,28.08
2022-12-13T00:03:57.053Z,29.73
2022-12-13T00:06:24.504Z,29.63
2022-12-13T00:08:52.118Z,28.70
2022-12-13T00:11:19.579Z,28.98
2022-12-13T00:13:48.143Z,23.77
2022-12-13T00:16:22.515Z,23.58
2022-12-13T00:18:51.273Z,25.98
2022-12-13T00:21:20.967Z,24.15
2022-12-13T00:23:48.400Z,20.05
2022-12-13T00:26:20.955Z,28.80
2022-12-13T00:28:49.531Z,21.25
2022-12-13T00:34:05.079Z,21.75
2022-12-13T00:36:32.180Z,21.42
2022-12-13T00:39:02.356Z,24.83
2022-12-13T00:41:36.057Z,23.60
2022-12-13T00:44:04.696Z,23.42
2022-12-13T00:46:32.314Z,24.55
2022-12-13T00:49:01.246Z,22.95
2022-12-13T00:51:30.557Z,22.98
2022-12-13T00:53:58.530Z,22.70
2022-12-13T00:56:27.881Z,23.13
2022-12-13T00:58:55.848Z,22.75
2022-12-13T01:01:25.996Z,22.05
2022-12-13T01:03:58.861Z,21.45
2022-12-13T01:06:30.298Z,21.13
2022-12-13T01:08:57.300Z,20.90
2022-12-13T01:11:24.471Z,24.83
2022-12-13T01:13:51.440Z,23.13
2022-12-13T01:16:18.838Z,25.95
2022-12-13T01:18:46.104Z,26.05
2022-12-13T01:21:17.267Z,23.90
2022-12-13T01:23:45.130Z,25.33
2022-12-13T01:26:14.765Z,28.23
2022-12-13T01:28:42.139Z,25.88
2022-12-13T01:31:14.610Z,25.13
2022-12-13T01:33:41.760Z,20.50
2022-12-13T01:36:14.020Z,24.80
2022-12-13T01:38:40.950Z,20.63
2022-12-13T01:41:17.161Z,22.92
2022-12-13T01:43:48.118Z,21.35
2022-12-13T01:46:17.558Z,18.25
2022-12-13T01:48:47.667Z,21.70
2022-12-13T01:51:19.306Z,20.48
2022-12-13T01:53:49.374Z,17.88
2022-12-13T01:56:22.638Z,19.40
2022-12-13T01:58:52.274Z,19.60
2022-12-13T02:01:19.620Z,18.00
2022-12-13T02:03:46.655Z,18.58
2022-12-13T02:06:19.534Z,19.58
2022-12-13T02:08:47.000Z,14.32
2022-12-13T02:11:14.679Z,18.75
2022-12-13T02:13:41.701Z,19.52
2022-12-13T02:16:27.912Z,15.45
2022-12-13T02:19:39.266Z,18.58
2022-12-13T02:22:31.032Z,19.55
2022-12-13T02:25:08.547Z,14.60
2022-12-13T02:28:00.632Z,20.10
2022-12-13T02:30:39.273Z,17.58
2022-12-13T02:34:01.441Z,17.33
2022-12-13T02:36:36.395Z,16.73
2022-12-13T02:39:53.860Z,17.80
2022-12-13T02:42:34.862Z,16.88
2022-12-13T02:45:20.058Z,15.43
2022-12-13T02:47:49.944Z,18.77
2022-12-13T02:50:17.024Z,15.95
2022-12-13T02:52:46.752Z,22.10
2022-12-13T02:55:16.502Z,19.42
2022-12-13T02:57:45.308Z,18.45
2022-12-13T03:00:19.494Z,20.45
2022-12-13T03:03:31.866Z,17.42
2022-12-13T03:06:33.597Z,24.15
2022-12-13T03:09:16.078Z,26.80
2022-12-13T03:12:33.332Z,24.25
2022-12-13T03:15:21.155Z,30.42
2022-12-13T03:17:53.741Z,35.92
2022-12-13T03:20:25.351Z,27.08
2022-12-13T03:22:53.259Z,27.33
2022-12-13T03:25:32.005Z,25.17
2022-12-13T03:28:02.075Z,37.15
2022-12-13T03:30:31.830Z,38.13
2022-12-13T03:32:59.135Z,31.92
2022-12-13T03:35:34.249Z,30.35
2022-12-13T03:38:02.366Z,34.65
2022-12-13T03:40:30.558Z,33.03
2022-12-13T03:42:57.720Z,33.63
2022-12-13T03:45:24.743Z,25.30
2022-12-13T03:47:51.727Z,24.80
2022-12-13T03:50:26.148Z,21.35
2022-12-13T03:53:02.133Z,16.35
2022-12-13T03:55:29.992Z,16.40
2022-12-13T03:57:56.967Z,16.10
2022-12-13T04:00:23.932Z,17.50
2022-12-13T04:02:51.004Z,15.18
2022-12-13T04:05:18.555Z,16.83
2022-12-13T04:07:48.175Z,14.48
2022-12-13T04:10:26.305Z,15.27
2022-12-13T04:13:13.158Z,16.40
2022-12-13T04:15:40.774Z,19.55
2022-12-13T04:18:07.810Z,13.95
2022-12-13T04:20:34.789Z,15.77
2022-12-13T04:23:10.153Z,15.20
2022-12-13T04:25:38.831Z,16.85
2022-12-13T04:28:06.669Z,16.55
2022-12-13T04:30:34.529Z,14.77
2022-12-13T04:33:01.484Z,14.07
2022-12-13T04:35:28.474Z,14.85
2022-12-13T04:37:57.041Z,16.25
2022-12-13T04:40:24.353Z,13.55
2022-12-13T04:42:54.071Z,16.48
2022-12-13T04:45:22.947Z,16.73
2022-12-13T04:47:50.255Z,18.25
2022-12-13T04:50:17.381Z,23.08
2022-12-13T04:52:45.041Z,27.55
2022-12-13T04:55:12.515Z,22.98
2022-12-13T04:57:40.038Z,20.00
2022-12-13T05:00:09.975Z,21.35
2022-12-13T05:02:37.191Z,20.98
2022-12-13T05:05:04.293Z,16.52
2022-12-13T05:07:31.486Z,15.85
2022-12-13T05:09:58.414Z,16.55
2022-12-13T05:12:25.343Z,14.60
2022-12-13T05:14:53.155Z,13.45
2022-12-13T05:17:21.179Z,15.77
2022-12-13T05:19:48.168Z,21.02
2022-12-13T05:22:20.804Z,15.23
2022-12-13T05:24:48.521Z,17.65
2022-12-13T05:27:23.753Z,16.45
2022-12-13T05:30:02.118Z,15.02
2022-12-13T05:32:43.216Z,13.88
2022-12-13T05:35:22.721Z,14.80
2022-12-13T05:37:55.176Z,15.93
2022-12-13T05:40:27.170Z,16.52
2022-12-13T05:43:01.465Z,13.80
2022-12-13T05:45:30.960Z,16.02
2022-12-13T05:47:58.174Z,16.10
2022-12-13T05:50:25.783Z,17.80
2022-12-13T05:52:52.767Z,17.35
2022-12-13T05:55:20.128Z,20.52
2022-12-13T05:57:50.123Z,16.88
2022-12-13T06:00:29.888Z,24.17
2022-12-13T06:03:00.689Z,26.75
2022-12-13T06:05:29.534Z,29.23
2022-12-13T06:07:57.985Z,41.65
2022-12-13T06:10:34.138Z,36.78
2022-12-13T06:13:21.929Z,36.55
2022-12-13T06:16:01.425Z,33.67
2022-12-13T06:18:31.694Z,28.95
2022-12-13T06:21:04.515Z,36.55
2022-12-13T06:23:32.925Z,24.27
2022-12-13T06:26:02.461Z,28.05
2022-12-13T06:28:29.603Z,32.83
2022-12-13T06:31:00.396Z,26.65
2022-12-13T06:33:27.450Z,26.92
2022-12-13T06:35:57.997Z,26.85
2022-12-13T06:38:31.398Z,38.45
2022-12-13T06:41:10.437Z,45.03
2022-12-13T06:43:37.394Z,45.92
2022-12-13T06:46:06.095Z,41.65
2022-12-13T06:48:33.658Z,43.72
2022-12-13T06:51:05.568Z,43.72
2022-12-13T06:53:34.569Z,55.67
2022-12-13T06:56:07.222Z,64.68
2022-12-13T06:58:35.241Z,62.70
2022-12-13T07:01:24.269Z,101.65
2022-12-13T07:03:54.848Z,83.60
2022-12-13T07:06:23.895Z,86.78
2022-12-13T07:08:56.149Z,84.85
2022-12-13T07:11:28.644Z,74.00
2022-12-13T07:13:56.199Z,74.10
2022-12-13T07:16:24.483Z,72.20
2022-12-13T07:19:01.277Z,78.65
2022-12-13T07:21:29.103Z,69.70
2022-12-13T07:23:56.135Z,70.00
2022-12-13T07:26:23.666Z,76.50
2022-12-13T07:28:55.145Z,71.20
2022-12-13T07:31:24.485Z,71.22
2022-12-13T07:33:51.971Z,76.90
2022-12-13T07:36:21.748Z,78.28
2022-12-13T07:38:53.989Z,138.02
2022-12-13T07:41:25.155Z,93.22
2022-12-13T07:43:55.017Z,83.60
2022-12-13T07:46:33.542Z,87.93
2022-12-13T07:49:05.379Z,79.30
2022-12-13T07:51:35.048Z,84.80
2022-12-13T07:54:06.724Z,91.55
2022-12-13T07:56:35.044Z,80.97
2022-12-13T07:59:02.163Z,77.60
2022-12-13T08:01:31.212Z,87.72
2022-12-13T08:03:58.190Z,82.45
2022-12-13T08:06:25.167Z,76.15
2022-12-13T08:08:58.580Z,75.60
2022-12-13T08:13:56.451Z,73.80
2022-12-13T08:16:27.207Z,76.50
2022-12-13T08:19:02.796Z,73.60
2022-12-13T08:21:57.356Z,74.35
2022-12-13T08:24:28.079Z,71.82
2022-12-13T08:26:57.603Z,66.80
2022-12-13T08:29:34.588Z,66.55
2022-12-13T08:32:08.628Z,70.50
2022-12-13T08:34:36.162Z,80.40
2022-12-13T08:37:04.514Z,69.50
2022-12-13T08:39:35.572Z,74.03
2022-12-13T08:42:19.005Z,74.50
2022-12-13T08:47:23.585Z,68.53
2022-12-13T08:50:03.991Z,77.57
2022-12-13T08:52:40.809Z,64.40
2022-12-13T08:55:14.404Z,62.90
2022-12-13T08:57:42.687Z,65.93
2022-12-13T09:00:12.980Z,67.78
2022-12-13T09:02:40.312Z,73.18
2022-12-13T09:05:09.305Z,83.10
2022-12-13T09:07:39.689Z,79.63
2022-12-13T09:10:26.607Z,88.45
2022-12-13T09:13:01.862Z,89.90
2022-12-13T09:15:34.672Z,84.90
2022-12-13T09:18:05.065Z,92.13
2022-12-13T09:20:40.810Z,85.97
2022-12-13T09:23:14.264Z,79.90
2022-12-13T09:26:05.511Z,77.07
2022-12-13T09:28:38.053Z,73.57
2022-12-13T09:31:16.100Z,67.90
2022-12-13T09:33:45.915Z,73.85
2022-12-13T09:36:19.481Z,58.50
2022-12-13T09:38:48.474Z,64.43
2022-12-13T09:41:33.328Z,61.33
2022-12-13T09:44:31.959Z,60.92
2022-12-13T09:47:27.095Z,65.38
2022-12-13T09:50:15.071Z,61.40
2022-12-13T09:52:45.200Z,72.47
2022-12-13T09:55:31.646Z,68.05
2022-12-13T09:58:05.408Z,65.63
2022-12-13T10:00:37.492Z,68.82
2022-12-13T10:03:04.597Z,64.15
2022-12-13T10:05:40.107Z,58.83
2022-12-13T10:08:13.033Z,59.65
2022-12-13T10:10:40.406Z,43.90
2022-12-13T10:13:28.806Z,49.40
2022-12-13T10:16:02.669Z,44.72
2022-12-13T10:18:41.220Z,47.92
2022-12-13T10:21:18.094Z,46.97
2022-12-13T10:24:22.853Z,40.22
2022-12-13T10:26:37.982Z,46.97
2022-12-13T10:29:06.561Z,52.00
2022-12-13T10:31:53.814Z,50.10
2022-12-13T10:34:24.550Z,57.83
2022-12-13T10:36:52.588Z,53.60
2022-12-13T10:39:39.921Z,49.17
2022-12-13T10:42:14.042Z,52.63
2022-12-13T10:44:50.168Z,58.42
2022-12-13T10:47:21.899Z,55.88
2022-12-13T10:49:59.146Z,56.40
2022-12-13T10:52:31.663Z,54.75
2022-12-13T10:55:03.182Z,59.58
2022-12-13T10:57:30.637Z,59.53
2022-12-13T10:59:59.167Z,49.85
2022-12-13T11:02:29.076Z,57.55
2022-12-13T11:04:58.310Z,41.45
2022-12-13T11:07:30.052Z,43.53
2022-12-13T11:10:04.904Z,46.40
2022-12-13T11:12:33.478Z,46.75
2022-12-13T11:15:04.535Z,52.85
2022-12-13T11:17:39.556Z,52.78
2022-12-13T11:20:18.360Z,51.00
2022-12-13T11:22:45.348Z,47.45
2022-12-13T11:25:29.777Z,56.65
2022-12-13T11:28:26.474Z,54.92
2022-12-13T11:31:32.031Z,54.35
2022-12-13T11:34:10.609Z,58.17
2022-12-13T11:36:50.928Z,61.80
2022-12-13T11:40:01.695Z,57.97
2022-12-13T11:42:38.585Z,58.75
2022-12-13T11:45:23.054Z,56.97
2022-12-13T11:48:03.471Z,61.15
2022-12-13T11:50:35.639Z,68.55
2022-12-13T11:53:30.228Z,62.58
2022-12-13T11:56:05.197Z,65.45
2022-12-13T11:59:02.957Z,71.60
2022-12-13T12:01:47.906Z,52.50
2022-12-13T12:04:46.539Z,47.20
2022-12-13T12:07:33.640Z,45.65
2022-12-13T12:10:29.333Z,45.50
2022-12-13T12:13:05.375Z,45.97
2022-12-13T12:15:41.849Z,46.95
2022-12-13T12:18:15.987Z,47.20
2022-12-13T12:21:05.274Z,49.90
2022-12-13T12:23:52.786Z,49.05
2022-12-13T12:26:30.204Z,53.53
2022-12-13T12:29:34.273Z,54.45
2022-12-13T12:32:01.231Z,57.20
2022-12-13T12:35:02.436Z,57.80
2022-12-13T12:38:04.508Z,58.78
2022-12-13T12:43:44.043Z,58.97
2022-12-13T12:46:29.212Z,63.92
2022-12-13T12:49:05.407Z,67.63
2022-12-13T12:52:12.927Z,65.63
2022-12-13T12:55:03.096Z,58.55
2022-12-13T12:57:33.069Z,57.00
2022-12-13T13:00:12.001Z,59.22
2022-12-13T13:03:30.480Z,60.38
2022-12-13T13:06:06.116Z,55.40
2022-12-13T13:08:43.786Z,54.08
2022-12-13T13:11:24.894Z,60.42
2022-12-13T13:14:01.395Z,56.00
2022-12-13T13:16:41.339Z,60.38
2022-12-13T13:19:31.488Z,56.78
2022-12-13T13:22:01.642Z,65.18
2022-12-13T13:24:34.750Z,60.38
2022-12-13T13:27:10.598Z,65.20
2022-12-13T13:29:43.504Z,63.25
2022-12-13T13:32:11.341Z,60.95
2022-12-13T13:34:42.460Z,54.42
2022-12-13T13:37:24.598Z,61.20
2022-12-13T13:39:58.954Z,54.85
2022-12-13T13:42:30.811Z,54.88
2022-12-13T13:45:18.989Z,60.65
2022-12-13T13:48:14.220Z,65.93
2022-12-13T13:51:09.219Z,68.07
2022-12-13T13:54:00.038Z,54.42
2022-12-13T13:56:50.292Z,52.05
2022-12-13T13:59:42.043Z,60.72
2022-12-13T14:02:39.462Z,65.32
2022-12-13T14:05:43.697Z,66.20
2022-12-13T14:11:55.816Z,65.55
2022-12-13T14:14:49.960Z,65.72
2022-12-13T14:17:36.111Z,69.25
2022-12-13T14:20:21.476Z,66.47
2022-12-13T14:22:58.881Z,70.45
2022-12-13T14:25:52.348Z,73.60
2022-12-13T14:30:57.751Z,57.63
2022-12-13T14:33:26.629Z,59.83
2022-12-13T14:35:56.031Z,58.63
2022-12-13T14:38:31.122Z,66.55
2022-12-13T14:41:02.632Z,68.57
2022-12-13T14:43:32.068Z,69.72
2022-12-13T14:46:04.588Z,66.65
2022-12-13T14:48:37.534Z,70.80
2022-12-13T14:51:04.907Z,73.47
2022-12-13T14:53:41.352Z,70.32
2022-12-13T14:56:27.637Z,81.32
2022-12-13T14:59:03.397Z,76.97
2022-12-13T15:01:33.321Z,74.25
2022-12-13T15:04:19.778Z,70.65
2022-12-13T15:07:07.013Z,73.80
2022-12-13T15:09:42.859Z,77.88
2022-12-13T15:12:25.486Z,78.82
2022-12-13T15:15:05.563Z,75.18
2022-12-13T15:17:35.874Z,69.95
2022-12-13T15:20:23.817Z,73.15
2022-12-13T15:23:04.506Z,69.55
2022-12-13T15:25:34.105Z,82.60
2022-12-13T15:28:01.232Z,73.75
2022-12-13T15:30:31.904Z,76.78
2022-12-13T15:33:17.871Z,74.78
2022-12-13T15:35:47.966Z,71.57
2022-12-13T15:38:28.262Z,77.15
2022-12-13T15:40:56.858Z,70.47
2022-12-13T15:43:33.231Z,76.07
2022-12-13T15:46:00.763Z,80.00
2022-12-13T15:48:31.848Z,70.13
2022-12-13T15:51:30.422Z,65.20
2022-12-13T15:54:21.309Z,65.40
2022-12-13T15:57:16.018Z,66.70
2022-12-13T15:59:46.105Z,64.75
2022-12-13T16:02:21.242Z,63.47
2022-12-13T16:04:48.784Z,68.47
2022-12-13T16:07:24.614Z,67.68
2022-12-13T16:09:53.805Z,62.08
2022-12-13T16:12:26.927Z,57.63
2022-12-13T16:15:09.538Z,62.67
2022-12-13T16:17:36.832Z,52.03
2022-12-13T16:20:15.883Z,59.22
2022-12-13T16:22:43.536Z,66.97
2022-12-13T16:25:18.742Z,68.65
2022-12-13T16:27:47.391Z,69.28
2022-12-13T16:30:27.333Z,63.45
2022-12-13T16:33:17.922Z,74.93
2022-12-13T16:35:41.907Z,60.28
2022-12-13T16:38:17.860Z,65.97
2022-12-13T16:40:56.539Z,66.72
2022-12-13T16:43:32.777Z,71.18
2022-12-13T16:47:15.220Z,67.50
2022-12-13T16:48:51.956Z,65.05
2022-12-13T16:51:18.980Z,64.95
2022-12-13T16:53:46.635Z,62.15
2022-12-13T16:56:14.945Z,70.18
2022-12-13T16:58:49.446Z,69.65
2022-12-13T17:01:20.428Z,70.22
2022-12-13T17:03:47.609Z,65.03
2022-12-13T17:06:16.031Z,66.38
2022-12-13T17:08:42.976Z,73.47
2022-12-13T17:11:13.309Z,81.25
2022-12-13T17:13:47.056Z,73.63
2022-12-13T17:16:14.367Z,70.57
2022-12-13T17:18:41.890Z,69.55
2022-12-13T17:21:10.290Z,63.05
2022-12-13T17:23:37.562Z,71.85
2022-12-13T17:26:10.164Z,75.18
2022-12-13T17:28:37.536Z,70.80
2022-12-13T17:31:08.711Z,82.20
2022-12-13T17:33:36.501Z,73.85
2022-12-13T17:36:08.158Z,83.50
2022-12-13T17:38:35.436Z,66.93
2022-12-13T17:41:02.553Z,66.15
2022-12-13T17:43:34.765Z,72.68
2022-12-13T17:46:08.638Z,77.70
2022-12-13T17:51:10.033Z,72.70
2022-12-13T17:53:38.909Z,74.88
2022-12-13T17:56:08.970Z,75.75
2022-12-13T17:58:36.166Z,72.78
2022-12-13T18:01:22.422Z,65.30
2022-12-13T18:03:52.748Z,74.47
2022-12-13T18:06:19.869Z,65.95
2022-12-13T18:08:47.199Z,73.05
2022-12-13T18:14:07.405Z,70.00
2022-12-13T18:16:38.547Z,58.33
2022-12-13T18:19:12.627Z,60.08
2022-12-13T18:21:40.001Z,68.47
2022-12-13T18:24:07.661Z,70.03
2022-12-13T18:26:34.903Z,67.95
2022-12-13T18:29:02.448Z,67.38
2022-12-13T18:31:29.474Z,67.15
2022-12-13T18:33:56.499Z,65.78
2022-12-13T18:36:25.030Z,60.75
2022-12-13T18:38:52.042Z,66.38
2022-12-13T18:41:22.005Z,61.42
2022-12-13T18:43:53.783Z,67.72
2022-12-13T18:46:20.737Z,67.13
2022-12-13T18:48:47.762Z,63.67
2022-12-13T18:51:14.727Z,66.38
2022-12-13T18:53:42.158Z,65.63
2022-12-13T18:56:18.259Z,64.20
2022-12-13T18:58:46.258Z,63.30
2022-12-13T19:01:13.996Z,66.55
2022-12-13T19:03:44.228Z,65.38
2022-12-13T19:06:19.758Z,61.35
2022-12-13T19:08:52.012Z,60.30
2022-12-13T19:11:19.845Z,109.25
2022-12-13T19:13:47.671Z,71.78
2022-12-13T19:16:18.551Z,67.25
2022-12-13T19:18:45.638Z,64.93
2022-12-13T19:21:16.533Z,63.05
2022-12-13T19:23:43.693Z,69.90
2022-12-13T19:26:14.062Z,69.20
2022-12-13T19:28:42.264Z,70.18
2022-12-13T19:31:11.297Z,67.93
2022-12-13T19:33:38.952Z,64.43
2022-12-13T19:36:06.550Z,61.75
2022-12-13T19:38:33.670Z,70.43
2022-12-13T19:41:05.936Z,69.82
2022-12-13T19:43:32.922Z,64.38
2022-12-13T19:46:01.076Z,65.32
2022-12-13T19:48:28.131Z,68.35
2022-12-13T19:51:02.509Z,65.30
2022-12-13T19:53:30.563Z,63.92
2022-12-13T19:55:58.545Z,67.80
2022-12-13T19:58:26.566Z,62.47
2022-12-13T20:01:00.521Z,67.25
2022-12-13T20:03:28.166Z,66.32
2022-12-13T20:05:59.962Z,63.38
2022-12-13T20:08:27.269Z,62.92
2022-12-13T20:11:08.700Z,67.22
2022-12-13T20:13:37.717Z,52.90
2022-12-13T20:16:05.895Z,66.13
2022-12-13T20:18:34.001Z,65.22
2022-12-13T20:21:14.048Z,69.00
2022-12-13T20:23:48.945Z,69.47
2022-12-13T20:26:18.635Z,71.97
2022-12-13T20:28:45.743Z,65.57
2022-12-13T20:31:15.377Z,64.80
2022-12-13T20:33:42.730Z,56.60
2022-12-13T20:36:24.117Z,60.10
2022-12-13T20:38:51.805Z,65.45
2022-12-13T20:41:18.803Z,60.65
2022-12-13T20:43:48.326Z,63.65
2022-12-13T20:46:16.016Z,64.78
2022-12-13T20:48:44.911Z,67.80
2022-12-13T20:51:14.637Z,63.88
2022-12-13T20:53:44.866Z,65.07
2022-12-13T20:56:14.948Z,62.92
2022-12-13T20:58:42.530Z,65.90
2022-12-13T21:01:18.273Z,70.30
2022-12-13T21:03:46.066Z,65.35
2022-12-13T21:06:13.628Z,69.82
2022-12-13T21:08:52.903Z,65.95
2022-12-13T21:11:28.950Z,70.00
2022-12-13T21:14:10.173Z,69.18
2022-12-13T21:16:45.165Z,73.45
2022-12-13T21:19:17.207Z,75.03
2022-12-13T21:21:44.224Z,72.38
2022-12-13T21:24:14.783Z,73.32
2022-12-13T21:26:42.136Z,77.30
2022-12-13T21:29:13.931Z,79.20
2022-12-13T21:31:43.200Z,78.22
2022-12-13T21:34:11.335Z,82.47
2022-12-13T21:36:41.378Z,78.80
2022-12-13T21:39:14.624Z,78.90
2022-12-13T21:41:42.671Z,80.82
2022-12-13T21:44:15.352Z,75.97
2022-12-13T21:49:32.143Z,94.32
2022-12-13T21:51:59.222Z,91.93
2022-12-13T21:54:26.135Z,94.35
2022-12-13T21:57:12.404Z,97.75
2022-12-13T21:59:39.363Z,99.82
2022-12-13T22:02:19.581Z,108.63
2022-12-13T22:05:04.153Z,99.82
2022-12-13T22:07:34.213Z,108.38
2022-12-13T22:10:02.347Z,107.05
2022-12-13T22:12:36.761Z,112.35
2022-12-13T22:15:06.762Z,104.85
2022-12-13T22:17:36.038Z,110.90
2022-12-13T22:20:12.183Z,91.03
2022-12-13T22:22:40.705Z,97.55
2022-12-13T22:25:09.189Z,94.68
2022-12-13T22:27:36.310Z,91.55
2022-12-13T22:30:04.559Z,80.88
2022-12-13T22:32:33.062Z,78.22
2022-12-13T22:35:00.746Z,80.60
2022-12-13T22:37:27.847Z,76.70
2022-12-13T22:39:55.106Z,80.35
2022-12-13T22:42:22.752Z,87.68
2022-12-13T22:44:49.834Z,82.57
2022-12-13T22:47:17.126Z,77.18
2022-12-13T22:49:44.790Z,75.35
2022-12-13T22:52:17.178Z,67.72
2022-12-13T22:54:44.281Z,71.97
2022-12-13T22:57:11.582Z,75.72
2022-12-13T22:59:38.913Z,75.50
2022-12-13T23:02:06.171Z,70.55
2022-12-13T23:04:33.252Z,76.75
2022-12-13T23:07:00.492Z,80.88
2022-12-13T23:09:27.438Z,65.22
2022-12-13T23:12:12.670Z,75.43
2022-12-13T23:14:39.666Z,73.78
2022-12-13T23:17:06.994Z,66.90
2022-12-13T23:19:50.363Z,79.22
2022-12-13T23:22:20.048Z,77.50
2022-12-13T23:24:47.002Z,78.88
2022-12-13T23:27:13.954Z,76.25
2022-12-13T23:29:40.993Z,84.50
2022-12-13T23:32:07.903Z,73.30
2022-12-13T23:34:34.943Z,76.43
2022-12-13T23:37:01.887Z,68.65
2022-12-13T23:39:28.981Z,82.75
2022-12-13T23:41:55.922Z,80.97
2022-12-13T23:44:23.017Z,83.05
2022-12-13T23:46:49.925Z,76.22
2022-12-13T23:49:16.869Z,73.45
2022-12-13T23:51:43.864Z,73.15
2022-12-13T23:54:16.360Z,77.65
2022-12-13T23:56:43.835Z,62.75
2022-12-13T23:59:11.274Z,69.70
